Flight Number: EUR3040 Duration: 11:00
Departure: Warsaw Okecie (EPWA) at 08:00 Distance: 4057 Nm
Arrival: Chicago O'Hare (KORD) at 19:00 Equipment: B747

Weather Information
Warszawa-Okecie, Poland (EPWA) 52-10N 020-58E 107M Nov 18, 2017 - 07:00 AM EST / 2017.11.18 1200 UTC
Wind: from the WSW (240 degrees) at 8 MPH (7 KT) (direction variable):0
Visibility: greater than 7 mile(s):0
Sky conditions: mostly cloudy Temperature: 42 F (6 C) Dew Point: 32 F (0 C) Relative Humidity: 65% Pressure (altimeter): 29.97 in. Hg (1015 hPa)
ob: EPWA 181200Z 24007KT 200V270 9999 SCT025 BKN040 06/00 Q1015 NOSIG cycle: 12
Sunrise: 06:07 Sunset: 14:35 (UTC)

CHICAGO O'HARE INTERNATIONAL, IL, United States (KORD) 41-59N 087-55W 200M Nov 18, 2017 - 06:51 AM EST / 2017.11.18 1151 UTC
Wind: from the NNE (020 degrees) at 12 MPH (10 KT):0
Visibility: 10 mile(s):0
Sky conditions: overcast Temperature: 44.1 F (6.7 C) Dew Point: 41.0 F (5.0 C) Relative Humidity: 88% Pressure (altimeter): 29.48 in. Hg (998 hPa) Pressure tendency: 0.03 inches (1.0 hPa) lower than three hours ago
ob: KORD 181151Z 02010KT 10SM OVC008 07/05 A2948 RMK AO2 SLP986 60003 70017 T00670050 10089 20067 58010 cycle: 12
Sunrise: 12:49 Sunset: 22:24 (UTC)

TAF:2017/11/18 12:34 TAF KORD 181132Z 1812/1918 01012G18KT 6SM -SHRA BR OVC006 FM181500 36016G27KT 2SM RA BR BKN006 OVC012 FM182000 34019G30KT 5SM -RA BKN015 OVC025 FM182200 33018G28KT P6SM BKN025 FM190600 32013G20KT P6SM SCT025 FM191200 30012KT P6SM SCT150

Previous Pireps for this route
Date Aircraft Flight time Fuel used Landing rate On time
2016-05-07B74709.35208501-398Yes
(pireps marked green are flown by you)

Route map